createdAt,value
2019-05-14T00:01:14.000Z,22.93
2019-05-14T00:03:42.068Z,22.75
2019-05-14T00:06:31.157Z,21.60
2019-05-14T00:09:05.300Z,22.37
2019-05-14T00:11:33.222Z,21.52
2019-05-14T00:14:12.851Z,21.48
2019-05-14T00:16:44.055Z,21.87
2019-05-14T00:19:12.121Z,21.20
2019-05-14T00:21:42.148Z,22.48
2019-05-14T00:24:11.409Z,21.15
2019-05-14T00:26:39.490Z,22.30
2019-05-14T00:29:07.344Z,21.40
2019-05-14T00:31:34.959Z,19.15
2019-05-14T00:34:02.652Z,21.42
2019-05-14T00:36:31.932Z,21.07
2019-05-14T00:39:01.834Z,22.17
2019-05-14T00:41:31.310Z,21.95
2019-05-14T00:44:01.820Z,20.02
2019-05-14T00:46:31.464Z,20.65
2019-05-14T00:48:59.237Z,21.62
2019-05-14T00:51:27.306Z,21.20
2019-05-14T00:53:55.036Z,20.37
2019-05-14T00:56:22.692Z,22.10
2019-05-14T00:58:52.126Z,19.12
2019-05-14T01:01:21.490Z,21.80
2019-05-14T01:03:49.414Z,20.80
2019-05-14T01:06:17.540Z,19.90
2019-05-14T01:08:45.131Z,19.95
2019-05-14T01:11:12.930Z,21.10
2019-05-14T01:13:41.708Z,19.67
2019-05-14T01:16:11.829Z,20.75
2019-05-14T01:18:41.327Z,19.87
2019-05-14T01:21:08.400Z,18.62
2019-05-14T01:23:35.988Z,18.00
2019-05-14T01:26:03.971Z,19.07
2019-05-14T01:28:32.393Z,19.00
2019-05-14T01:31:11.356Z,20.32
2019-05-14T01:33:41.064Z,19.27
2019-05-14T01:36:12.331Z,19.82
2019-05-14T01:38:43.205Z,19.85
2019-05-14T01:41:16.363Z,18.80
2019-05-14T01:43:45.537Z,19.37
2019-05-14T01:46:13.167Z,18.77
2019-05-14T01:48:41.751Z,18.05
2019-05-14T01:51:11.891Z,21.37
2019-05-14T01:53:41.632Z,20.00
2019-05-14T01:56:09.331Z,18.25
2019-05-14T01:58:38.903Z,19.12
2019-05-14T02:01:06.983Z,16.37
2019-05-14T02:03:35.158Z,17.62
2019-05-14T02:06:02.808Z,17.70
2019-05-14T02:08:32.241Z,19.70
2019-05-14T02:11:01.676Z,19.27
2019-05-14T02:13:32.265Z,18.80
2019-05-14T02:16:02.042Z,16.90
2019-05-14T02:18:32.039Z,18.85
2019-05-14T02:21:01.608Z,19.07
2019-05-14T02:23:31.979Z,19.02
2019-05-14T02:26:02.272Z,18.80
2019-05-14T02:28:31.484Z,21.55
2019-05-14T02:31:03.386Z,19.30
2019-05-14T02:33:31.906Z,19.52
2019-05-14T02:36:00.355Z,23.98
2019-05-14T02:38:30.030Z,21.45
2019-05-14T02:40:59.952Z,19.48
2019-05-14T02:43:29.520Z,19.12
2019-05-14T02:46:10.864Z,21.02
2019-05-14T02:48:29.312Z,21.62
2019-05-14T02:50:59.831Z,19.42
2019-05-14T02:53:29.719Z,22.05
2019-05-14T02:55:59.636Z,19.23
2019-05-14T02:58:29.883Z,18.50
2019-05-14T03:01:00.458Z,21.68
2019-05-14T03:03:35.482Z,19.37
2019-05-14T03:06:03.270Z,22.48
2019-05-14T03:08:32.435Z,22.00
2019-05-14T03:11:00.608Z,23.90
2019-05-14T03:13:29.564Z,23.18
2019-05-14T03:15:59.485Z,20.85
2019-05-14T03:18:29.622Z,23.32
2019-05-14T03:21:01.069Z,24.20
2019-05-14T03:23:30.130Z,25.77
2019-05-14T03:26:00.534Z,24.80
2019-05-14T03:28:30.720Z,22.05
2019-05-14T03:31:03.214Z,20.92
2019-05-14T03:33:33.434Z,22.85
2019-05-14T03:36:08.324Z,27.37
2019-05-14T03:38:29.762Z,25.82
2019-05-14T03:41:01.234Z,32.70
2019-05-14T03:43:29.713Z,24.60
2019-05-14T03:45:59.546Z,23.45
2019-05-14T03:48:29.722Z,23.27
2019-05-14T03:51:00.306Z,31.07
2019-05-14T03:53:29.576Z,24.07
2019-05-14T03:55:59.680Z,26.93
2019-05-14T03:58:29.948Z,28.47
2019-05-14T04:01:01.010Z,25.20
2019-05-14T04:03:30.416Z,23.30
2019-05-14T04:06:00.485Z,24.63
2019-05-14T04:08:29.920Z,29.65
2019-05-14T04:10:59.403Z,29.10
2019-05-14T04:13:32.117Z,30.40
2019-05-14T04:16:02.674Z,25.00
2019-05-14T04:18:35.404Z,25.85
2019-05-14T04:21:03.929Z,27.13
2019-05-14T04:23:34.655Z,23.15
2019-05-14T04:26:04.683Z,21.52
2019-05-14T04:28:34.266Z,24.87
2019-05-14T04:31:02.815Z,22.42
2019-05-14T04:33:33.977Z,23.90
2019-05-14T04:36:02.740Z,23.73
2019-05-14T04:38:40.512Z,25.72
2019-05-14T04:41:06.274Z,28.45
2019-05-14T04:43:33.840Z,24.40
2019-05-14T04:46:01.543Z,23.67
2019-05-14T04:48:37.229Z,27.17
2019-05-14T04:51:03.556Z,26.05
2019-05-14T04:53:31.310Z,26.20
2019-05-14T04:56:00.229Z,24.67
2019-05-14T04:58:29.732Z,26.70
2019-05-14T05:01:01.019Z,24.82
2019-05-14T05:03:31.297Z,24.80
2019-05-14T05:05:59.201Z,29.20
2019-05-14T05:08:30.679Z,26.70
2019-05-14T05:11:00.054Z,29.75
2019-05-14T05:13:29.121Z,23.38
2019-05-14T05:15:59.395Z,23.12
2019-05-14T05:18:29.392Z,23.45
2019-05-14T05:20:58.319Z,23.10
2019-05-14T05:23:28.306Z,23.30
2019-05-14T05:25:58.305Z,20.70
2019-05-14T05:28:28.074Z,20.48
2019-05-14T05:30:59.175Z,21.77
2019-05-14T05:33:29.150Z,23.47
2019-05-14T05:35:59.292Z,19.52
2019-05-14T05:38:29.249Z,18.30
2019-05-14T05:41:08.821Z,19.52
2019-05-14T05:43:39.450Z,22.35
2019-05-14T05:46:08.757Z,21.68
2019-05-14T05:48:38.883Z,18.50
2019-05-14T05:51:09.121Z,19.95
2019-05-14T05:53:50.549Z,21.80
2019-05-14T05:56:22.056Z,21.35
2019-05-14T05:58:49.734Z,20.17
2019-05-14T06:01:19.572Z,22.07
2019-05-14T06:03:49.182Z,21.10
2019-05-14T06:06:19.276Z,23.83
2019-05-14T06:08:49.130Z,21.90
2019-05-14T06:11:19.399Z,20.90
2019-05-14T06:13:52.938Z,21.30
2019-05-14T06:16:20.919Z,19.85
2019-05-14T06:18:50.118Z,24.15
2019-05-14T06:21:18.989Z,20.25
2019-05-14T06:23:49.056Z,22.85
2019-05-14T06:26:19.154Z,20.97
2019-05-14T06:28:48.890Z,24.77
2019-05-14T06:31:19.295Z,23.73
2019-05-14T06:33:48.664Z,18.55
2019-05-14T06:36:19.902Z,22.37
2019-05-14T06:38:49.459Z,19.80
2019-05-14T06:41:19.160Z,21.77
2019-05-14T06:43:55.501Z,22.00
2019-05-14T06:46:28.362Z,31.60
2019-05-14T06:48:55.695Z,22.77
2019-05-14T06:51:23.447Z,21.48
2019-05-14T06:53:51.319Z,23.38
2019-05-14T06:56:21.660Z,25.65
2019-05-14T06:58:49.275Z,22.52
2019-05-14T07:01:18.526Z,21.10
2019-05-14T07:03:48.709Z,22.32
2019-05-14T07:06:18.369Z,20.55
2019-05-14T07:08:45.487Z,23.90
2019-05-14T07:11:13.373Z,20.65
2019-05-14T07:13:41.215Z,23.52
2019-05-14T07:16:12.334Z,25.68
2019-05-14T07:18:52.860Z,21.55
2019-05-14T07:21:09.726Z,21.30
2019-05-14T07:23:38.476Z,22.07
2019-05-14T07:26:08.447Z,25.00
2019-05-14T07:28:36.327Z,18.48
2019-05-14T07:31:04.059Z,21.42
2019-05-14T07:33:31.680Z,25.55
2019-05-14T07:36:44.952Z,21.95
2019-05-14T07:39:18.887Z,17.57
2019-05-14T07:41:48.265Z,19.98
2019-05-14T07:44:18.278Z,21.07
2019-05-14T07:46:48.145Z,19.15
2019-05-14T07:49:18.457Z,14.90
2019-05-14T07:51:48.155Z,15.60
2019-05-14T07:54:19.476Z,14.90
2019-05-14T07:56:49.823Z,14.43
2019-05-14T07:59:18.134Z,16.12
2019-05-14T08:01:45.959Z,14.40
2019-05-14T08:04:29.208Z,14.45
2019-05-14T08:06:58.204Z,10.45
2019-05-14T08:09:28.255Z,11.00
2019-05-14T08:11:58.686Z,10.10
2019-05-14T08:14:29.416Z,12.68
2019-05-14T08:16:59.542Z,12.40
2019-05-14T08:19:29.687Z,10.80
2019-05-14T08:21:58.693Z,10.68
2019-05-14T08:24:29.400Z,14.25
2019-05-14T08:26:57.884Z,11.90
2019-05-14T08:29:36.854Z,12.47
2019-05-14T08:32:19.279Z,12.35
2019-05-14T08:34:48.016Z,11.65
2019-05-14T08:37:15.867Z,11.60
2019-05-14T08:39:43.767Z,10.75
2019-05-14T08:42:12.542Z,11.25
2019-05-14T08:44:42.001Z,12.53
2019-05-14T08:47:09.862Z,10.48
2019-05-14T08:49:45.962Z,11.18
2019-05-14T08:52:10.121Z,9.78
2019-05-14T08:54:39.100Z,11.12
2019-05-14T08:57:09.785Z,12.28
2019-05-14T08:59:39.579Z,11.45
2019-05-14T09:02:10.582Z,12.30
2019-05-14T09:04:43.026Z,12.30
2019-05-14T09:07:09.473Z,12.33
2019-05-14T09:09:38.284Z,10.00
2019-05-14T09:12:12.192Z,12.00
2019-05-14T09:14:35.761Z,14.28
2019-05-14T09:17:03.546Z,11.33
2019-05-14T09:19:31.866Z,11.12
2019-05-14T09:22:30.000Z,9.23
2019-05-14T09:25:10.176Z,10.00
2019-05-14T09:27:38.721Z,10.80
2019-05-14T09:30:09.824Z,10.53
2019-05-14T09:32:38.981Z,11.73
2019-05-14T09:35:09.828Z,11.17
2019-05-14T09:37:39.281Z,11.77
2019-05-14T09:40:08.772Z,11.63
2019-05-14T09:42:39.258Z,11.60
2019-05-14T09:45:10.870Z,14.73
2019-05-14T09:47:38.788Z,14.73
2019-05-14T09:50:22.014Z,14.60
2019-05-14T09:52:40.512Z,15.10
2019-05-14T09:55:09.981Z,14.80
2019-05-14T09:57:39.167Z,15.60
2019-05-14T10:00:09.285Z,16.60
2019-05-14T10:02:39.555Z,15.87
2019-05-14T10:05:09.434Z,16.12
2019-05-14T10:07:39.142Z,17.83
2019-05-14T10:10:07.780Z,17.20
2019-05-14T10:12:42.499Z,18.07
2019-05-14T10:15:13.887Z,19.55
2019-05-14T10:17:44.577Z,16.93
2019-05-14T10:20:13.615Z,19.00
2019-05-14T10:22:41.508Z,20.20
2019-05-14T10:25:09.531Z,18.62
2019-05-14T10:27:37.656Z,19.40
2019-05-14T10:30:09.893Z,17.23
2019-05-14T10:32:39.679Z,17.67
2019-05-14T10:35:08.503Z,19.00
2019-05-14T10:37:39.804Z,18.40
2019-05-14T10:40:10.507Z,14.87
2019-05-14T10:42:41.862Z,19.77
2019-05-14T10:45:12.921Z,18.52
2019-05-14T10:47:40.581Z,17.45
2019-05-14T10:50:13.419Z,20.90
2019-05-14T10:52:39.562Z,18.65
2019-05-14T10:55:08.889Z,16.70
2019-05-14T10:57:36.498Z,14.00
2019-05-14T11:00:05.175Z,19.02
2019-05-14T11:02:32.831Z,16.20
2019-05-14T11:05:00.506Z,18.98
2019-05-14T11:07:29.208Z,19.23
2019-05-14T11:09:57.200Z,17.45
2019-05-14T11:12:24.820Z,17.90
2019-05-14T11:14:52.873Z,19.48
2019-05-14T11:17:20.767Z,18.42
2019-05-14T11:19:48.599Z,18.70
2019-05-14T11:22:18.401Z,17.05
2019-05-14T11:24:49.210Z,20.17
2019-05-14T11:27:18.605Z,18.37
2019-05-14T11:29:49.141Z,17.95
2019-05-14T11:32:18.490Z,19.90
2019-05-14T11:34:46.390Z,20.15
2019-05-14T11:37:14.076Z,19.00
2019-05-14T11:39:41.865Z,17.17
2019-05-14T11:42:09.856Z,16.80
2019-05-14T11:44:38.318Z,16.62
2019-05-14T11:47:08.771Z,16.57
2019-05-14T11:49:36.062Z,17.37
2019-05-14T11:52:08.605Z,15.65
2019-05-14T11:54:34.186Z,16.48
2019-05-14T11:57:02.222Z,15.60
2019-05-14T11:59:30.201Z,13.40
2019-05-14T12:01:59.380Z,14.50
2019-05-14T12:04:28.383Z,16.10
2019-05-14T12:06:58.869Z,16.37
2019-05-14T12:09:28.225Z,15.63
2019-05-14T12:11:55.517Z,15.25
2019-05-14T12:14:26.677Z,15.32
2019-05-14T12:16:54.265Z,13.20
2019-05-14T12:19:21.996Z,16.20
2019-05-14T12:21:59.954Z,16.40
2019-05-14T12:24:19.692Z,15.58
2019-05-14T12:26:49.054Z,15.63
2019-05-14T12:29:17.508Z,15.25
2019-05-14T12:31:45.457Z,15.75
2019-05-14T12:34:13.022Z,16.62
2019-05-14T12:37:10.717Z,14.68
2019-05-14T12:39:38.395Z,15.70
2019-05-14T12:42:10.095Z,14.75
2019-05-14T12:44:40.955Z,14.28
2019-05-14T12:47:09.532Z,15.83
2019-05-14T12:49:38.744Z,14.70
2019-05-14T12:52:21.083Z,13.08
2019-05-14T12:54:38.778Z,11.97
2019-05-14T12:57:06.712Z,13.00
2019-05-14T12:59:34.519Z,13.90
2019-05-14T13:02:02.464Z,14.83
2019-05-14T13:04:30.304Z,12.20
2019-05-14T13:06:59.807Z,12.73
2019-05-14T13:09:27.726Z,12.65
2019-05-14T13:11:58.623Z,12.03
2019-05-14T13:14:28.366Z,11.70
2019-05-14T13:16:59.608Z,13.08
2019-05-14T13:19:28.461Z,12.13
2019-05-14T13:22:13.139Z,10.98
2019-05-14T13:24:30.010Z,11.15
2019-05-14T13:26:58.790Z,12.65
2019-05-14T13:29:28.944Z,12.73
2019-05-14T13:31:59.164Z,11.70
2019-05-14T13:34:29.014Z,12.85
2019-05-14T13:36:59.714Z,12.85
2019-05-14T13:39:28.306Z,10.78
2019-05-14T13:41:56.163Z,10.75
2019-05-14T13:44:25.278Z,10.55
2019-05-14T13:46:53.774Z,9.90
2019-05-14T13:49:23.635Z,10.93
2019-05-14T13:51:51.247Z,11.43
2019-05-14T13:54:19.409Z,10.50
2019-05-14T13:56:48.769Z,14.33
2019-05-14T13:59:19.433Z,13.95
2019-05-14T14:01:48.678Z,14.65
2019-05-14T14:04:18.357Z,12.55
2019-05-14T14:06:46.247Z,14.05
2019-05-14T14:09:13.856Z,14.53
2019-05-14T14:11:42.581Z,13.62
2019-05-14T14:14:10.277Z,14.70
2019-05-14T14:16:40.466Z,15.63
2019-05-14T14:19:08.740Z,14.68
2019-05-14T14:21:39.906Z,16.07
2019-05-14T14:24:09.863Z,14.68
2019-05-14T14:26:39.252Z,13.65
2019-05-14T14:29:09.277Z,16.07
2019-05-14T14:31:41.406Z,13.03
2019-05-14T14:34:09.169Z,15.53
2019-05-14T14:36:38.625Z,13.65
2019-05-14T14:39:06.336Z,14.45
2019-05-14T14:41:33.933Z,13.22
2019-05-14T14:44:01.854Z,14.00
2019-05-14T14:46:29.485Z,14.55
2019-05-14T14:49:02.176Z,14.45
2019-05-14T14:51:28.699Z,14.05
2019-05-14T14:54:02.671Z,13.05
2019-05-14T14:56:29.073Z,15.70
2019-05-14T14:58:56.720Z,14.78
2019-05-14T15:01:32.876Z,16.27
2019-05-14T15:04:00.712Z,15.70
2019-05-14T15:06:30.500Z,14.78
2019-05-14T15:08:58.984Z,16.40
2019-05-14T15:11:29.402Z,19.65
2019-05-14T15:13:58.742Z,16.60
2019-05-14T15:16:30.264Z,15.72
2019-05-14T15:18:58.281Z,15.10
2019-05-14T15:21:29.916Z,14.58
2019-05-14T15:24:10.022Z,14.73
2019-05-14T15:26:30.618Z,19.42
2019-05-14T15:28:59.620Z,14.83
2019-05-14T15:31:29.278Z,15.75
2019-05-14T15:33:59.403Z,15.05
2019-05-14T15:36:27.195Z,16.93
2019-05-14T15:38:55.064Z,15.85
2019-05-14T15:41:22.876Z,15.10
2019-05-14T15:43:51.968Z,16.90
2019-05-14T15:46:19.533Z,17.45
2019-05-14T15:48:48.629Z,17.40
2019-05-14T15:51:19.619Z,16.82
2019-05-14T15:54:05.610Z,16.02
2019-05-14T15:56:18.556Z,17.42
2019-05-14T15:58:45.777Z,15.72
2019-05-14T16:01:14.069Z,17.95
2019-05-14T16:03:42.304Z,20.57
2019-05-14T16:06:09.904Z,16.00
2019-05-14T16:08:40.229Z,15.68
2019-05-14T16:11:10.970Z,18.92
2019-05-14T16:13:39.643Z,17.82
2019-05-14T16:16:10.303Z,17.73
2019-05-14T16:18:38.569Z,18.65
2019-05-14T16:21:06.489Z,26.15
2019-05-14T16:23:34.623Z,18.73
2019-05-14T16:26:02.269Z,20.00
2019-05-14T16:28:29.826Z,20.15
2019-05-14T16:30:59.146Z,27.55
2019-05-14T16:33:29.263Z,21.42
2019-05-14T16:35:57.969Z,19.00
2019-05-14T16:38:28.586Z,18.35
2019-05-14T16:40:59.384Z,19.62
2019-05-14T16:43:29.538Z,21.05
2019-05-14T16:46:00.797Z,18.57
2019-05-14T16:48:29.042Z,24.98
2019-05-14T16:50:58.459Z,20.57
2019-05-14T16:53:28.714Z,22.35
2019-05-14T16:55:56.884Z,20.92
2019-05-14T16:58:24.484Z,22.50
2019-05-14T17:00:54.143Z,22.35
2019-05-14T17:03:21.892Z,20.72
2019-05-14T17:05:50.481Z,22.35
2019-05-14T17:08:19.242Z,22.82
2019-05-14T17:10:48.272Z,23.67
2019-05-14T17:13:17.940Z,24.85
2019-05-14T17:15:48.090Z,23.80
2019-05-14T17:18:16.220Z,22.52
2019-05-14T17:20:43.905Z,24.47
2019-05-14T17:23:12.903Z,23.20
2019-05-14T17:25:40.832Z,22.58
2019-05-14T17:28:09.482Z,23.35
2019-05-14T17:30:38.566Z,22.77
2019-05-14T17:33:06.455Z,22.37
2019-05-14T17:35:34.453Z,23.67
2019-05-14T17:38:02.625Z,24.77
2019-05-14T17:40:31.417Z,22.27
2019-05-14T17:42:59.339Z,25.57
2019-05-14T17:45:28.473Z,24.70
2019-05-14T17:47:58.486Z,24.50
2019-05-14T17:50:29.036Z,24.72
2019-05-14T17:52:56.967Z,23.35
2019-05-14T17:55:29.461Z,24.90
2019-05-14T17:57:58.743Z,23.47
2019-05-14T18:00:28.768Z,25.30
2019-05-14T18:02:59.245Z,25.17
2019-05-14T18:05:29.138Z,23.67
2019-05-14T18:07:59.447Z,26.80
2019-05-14T18:10:39.161Z,25.30
2019-05-14T18:13:18.824Z,26.48
2019-05-14T18:15:48.802Z,24.95
2019-05-14T18:18:18.484Z,27.87
2019-05-14T18:21:01.705Z,27.02
2019-05-14T18:23:32.032Z,27.55
2019-05-14T18:26:08.045Z,27.95
2019-05-14T18:28:30.491Z,31.30
2019-05-14T18:30:58.907Z,29.67
2019-05-14T18:33:30.776Z,30.15
2019-05-14T18:35:58.938Z,33.30
2019-05-14T18:38:42.609Z,31.35
2019-05-14T18:41:18.747Z,29.35
2019-05-14T18:43:48.493Z,29.67
2019-05-14T18:46:16.081Z,28.55
2019-05-14T18:48:48.674Z,27.17
2019-05-14T18:51:16.390Z,29.80
2019-05-14T18:53:44.235Z,28.92
2019-05-14T18:56:20.445Z,29.23
2019-05-14T18:58:42.951Z,24.10
2019-05-14T19:01:10.809Z,26.70
2019-05-14T19:03:39.634Z,26.02
2019-05-14T19:06:34.687Z,26.62
2019-05-14T19:09:09.879Z,25.65
2019-05-14T19:11:44.920Z,27.67
2019-05-14T19:14:12.521Z,29.32
2019-05-14T19:16:40.956Z,28.55
2019-05-14T19:19:08.958Z,26.62
2019-05-14T19:21:38.289Z,29.82
2019-05-14T19:24:06.413Z,29.30
2019-05-14T19:26:37.058Z,32.23
2019-05-14T19:29:04.886Z,31.60
2019-05-14T19:31:33.193Z,27.95
2019-05-14T19:34:08.318Z,32.23
2019-05-14T19:36:36.992Z,29.23
2019-05-14T19:39:09.146Z,31.52
2019-05-14T19:41:42.491Z,29.72
2019-05-14T19:44:10.150Z,35.85
2019-05-14T19:46:39.391Z,32.67
2019-05-14T19:49:08.256Z,31.35
2019-05-14T19:51:38.570Z,31.57
2019-05-14T19:54:08.126Z,33.33
2019-05-14T19:56:49.549Z,30.90
2019-05-14T19:59:05.778Z,32.85
2019-05-14T20:01:33.373Z,33.28
2019-05-14T20:04:01.095Z,33.50
2019-05-14T20:06:38.975Z,32.70
2019-05-14T20:09:09.499Z,35.68
2019-05-14T20:11:39.648Z,38.40
2019-05-14T20:14:06.932Z,32.58
2019-05-14T20:16:34.816Z,32.75
2019-05-14T20:19:02.443Z,33.53
2019-05-14T20:21:38.763Z,33.10
2019-05-14T20:24:07.021Z,34.63
2019-05-14T20:26:34.596Z,34.45
2019-05-14T20:29:02.722Z,19.35
2019-05-14T20:31:31.019Z,11.22
2019-05-14T20:33:59.158Z,6.42
2019-05-14T20:36:28.183Z,5.25
2019-05-14T20:38:55.910Z,3.67
2019-05-14T20:41:24.550Z,3.33
2019-05-14T20:43:52.879Z,2.40
2019-05-14T20:46:20.515Z,1.65
2019-05-14T20:48:50.770Z,1.25
2019-05-14T20:51:27.647Z,1.05
2019-05-14T20:53:55.322Z,0.75
2019-05-14T20:56:25.015Z,1.27
2019-05-14T20:58:58.795Z,2.15
2019-05-14T21:01:29.335Z,0.40
2019-05-14T21:03:59.209Z,0.75
2019-05-14T21:06:27.999Z,1.02
2019-05-14T21:08:58.319Z,0.80
2019-05-14T21:11:28.551Z,0.98
2019-05-14T21:13:58.134Z,0.57
2019-05-14T21:16:31.041Z,0.60
2019-05-14T21:18:59.366Z,1.22
2019-05-14T21:21:28.268Z,0.60
2019-05-14T21:23:58.508Z,0.60
2019-05-14T21:26:31.237Z,1.60
2019-05-14T21:28:59.110Z,1.50
2019-05-14T21:31:28.465Z,0.88
2019-05-14T21:33:58.620Z,2.15
2019-05-14T21:36:28.509Z,0.60
2019-05-14T21:38:58.503Z,1.20
2019-05-14T21:41:41.801Z,0.55
2019-05-14T21:44:10.797Z,0.60
2019-05-14T21:46:39.891Z,0.60
2019-05-14T21:49:10.962Z,0.88
2019-05-14T21:51:40.711Z,0.57
2019-05-14T21:54:19.018Z,0.65
2019-05-14T21:56:49.561Z,1.00
2019-05-14T21:59:18.937Z,0.82
2019-05-14T22:01:48.507Z,0.62
2019-05-14T22:04:18.653Z,1.15
2019-05-14T22:06:48.835Z,0.60
2019-05-14T22:09:16.109Z,0.65
2019-05-14T22:11:48.471Z,0.60
2019-05-14T22:14:15.989Z,0.47
2019-05-14T22:16:43.953Z,0.70
2019-05-14T22:19:11.589Z,0.45
2019-05-14T22:21:41.824Z,0.62
2019-05-14T22:24:09.507Z,0.85
2019-05-14T22:26:38.789Z,0.70
2019-05-14T22:29:08.308Z,0.88
2019-05-14T22:31:38.809Z,0.50
2019-05-14T22:34:18.499Z,0.88
2019-05-14T22:36:48.509Z,0.60
2019-05-14T22:39:19.796Z,0.90
2019-05-14T22:41:46.213Z,0.70
2019-05-14T22:44:14.054Z,0.70
2019-05-14T22:46:41.958Z,0.50
2019-05-14T22:49:10.756Z,0.72
2019-05-14T22:51:40.119Z,0.50
2019-05-14T22:54:08.665Z,1.67
2019-05-14T22:56:39.123Z,0.30
2019-05-14T22:59:07.085Z,1.00
2019-05-14T23:01:34.837Z,0.60
2019-05-14T23:04:02.467Z,1.05
2019-05-14T23:06:30.188Z,0.60
2019-05-14T23:08:58.212Z,0.95
2019-05-14T23:11:26.005Z,1.85
2019-05-14T23:13:53.808Z,1.17
2019-05-14T23:16:33.561Z,0.50
2019-05-14T23:18:51.212Z,0.50
2019-05-14T23:21:19.895Z,0.50
2019-05-14T23:23:47.481Z,0.50
2019-05-14T23:26:19.261Z,0.47
2019-05-14T23:28:49.225Z,0.72
2019-05-14T23:31:18.357Z,0.50
2019-05-14T23:33:46.006Z,0.50
2019-05-14T23:36:14.032Z,0.53
2019-05-14T23:38:41.952Z,0.70
2019-05-14T23:41:10.955Z,0.93
2019-05-14T23:43:39.425Z,0.90
2019-05-14T23:46:09.338Z,0.98
2019-05-14T23:48:39.224Z,0.90
2019-05-14T23:51:08.129Z,0.90
2019-05-14T23:53:36.007Z,0.82
2019-05-14T23:56:08.640Z,0.40
2019-05-14T23:58:36.695Z,0.70
